Time;durP1;ratioP1;P1;durP2;ratioP2;P2;SDS_P1;SDS_P2;PMS_P1;PMS_P2;Temp;Humidity;BMP_temperature;BMP_pressure;BME280_temperature;BME280_humidity;BME280_pressure;Samples;Min_cycle;Max_cycle;Signal;HPM_P1;HPM_P2
2022/08/12 00:49:57;;;;;;;2.90;1.30;;;;;;;16.92;63.20;100153.41;432237;1272;141991;-63
2022/08/12 01:00:08;;;;;;;1.60;1.50;;;;;;;16.83;63.96;100154.11;433328;1272;144157;-61
2022/08/12 01:20:43;;;;;;;1.30;1.10;;;;;;;16.64;65.74;100156.14;431903;1271;140891;-62
2022/08/12 01:30:50;;;;;;;2.20;1.90;;;;;;;16.58;66.58;100156.48;432324;1270;141352;-62
2022/08/12 01:40:59;;;;;;;2.10;1.90;;;;;;;16.46;67.58;100142.96;431020;1272;144917;-62
2022/08/12 01:51:19;;;;;;;2.50;1.80;;;;;;;16.22;68.57;100131.73;432731;1271;189084;-61
2022/08/12 02:01:50;;;;;;;11.60;7.80;;;;;;;15.85;70.23;100119.45;429988;1272;144557;-63
2022/08/12 02:12:03;;;;;;;4.30;3.90;;;;;;;15.65;71.53;100114.95;430967;1272;142184;-63
2022/08/12 02:22:23;;;;;;;6.10;4.30;;;;;;;15.51;72.20;100110.70;432095;1270;142268;-64
2022/08/12 02:32:29;;;;;;;3.20;2.90;;;;;;;15.41;72.81;100100.38;431578;1272;142708;-62
2022/08/12 02:42:36;;;;;;;2.60;2.40;;;;;;;15.32;73.05;100083.40;432566;1272;142676;-62
2022/08/12 02:52:44;;;;;;;2.60;2.40;;;;;;;15.23;73.30;100069.94;431252;1272;142470;-67
2022/08/12 03:02:54;;;;;;;4.60;3.00;;;;;;;15.15;73.64;100068.41;432854;1271;146395;-63
2022/08/12 03:13:03;;;;;;;3.50;2.20;;;;;;;15.09;74.06;100073.80;431330;1271;142688;-62
2022/08/12 03:23:12;;;;;;;6.20;3.10;;;;;;;15.03;74.55;100075.68;431358;1271;141677;-63
2022/08/12 03:33:37;;;;;;;5.40;3.80;;;;;;;14.89;75.01;100083.24;431657;1273;144759;-63
2022/08/12 04:04:43;;;;;;;4.80;3.30;;;;;;;15.25;76.31;100089.89;432359;1271;143388;-64
2022/08/12 04:14:51;;;;;;;4.00;3.50;;;;;;;15.44;76.23;100099.92;433265;1271;142039;-62
2022/08/12 04:24:59;;;;;;;4.10;3.50;;;;;;;15.71;75.92;100102.80;432079;1272;143878;-65
2022/08/12 04:35:07;;;;;;;3.30;2.40;;;;;;;16.33;75.74;100098.04;430924;1272;143423;-62
2022/08/12 04:45:13;;;;;;;3.20;2.70;;;;;;;17.10;73.89;100086.71;432666;1271;141878;-64
2022/08/12 04:55:28;;;;;;;3.80;2.50;;;;;;;18.11;71.83;100088.09;430902;1273;143297;-63
2022/08/12 05:05:36;;;;;;;2.30;2.10;;;;;;;18.87;69.05;100098.20;430307;1272;145273;-63
2022/08/12 05:15:43;;;;;;;2.10;2.00;;;;;;;22.49;66.31;100093.70;432182;1272;142045;-62
2022/08/12 05:26:10;;;;;;;1.70;1.30;;;;;;;30.79;53.25;100096.52;430771;1272;144196;-62
2022/08/12 05:36:18;;;;;;;7.50;2.30;;;;;;;32.52;43.76;100082.65;432882;1272;141732;-63
2022/08/12 05:46:26;;;;;;;2.10;1.90;;;;;;;30.89;43.46;100088.27;433268;1270;142049;-62
2022/08/12 05:56:35;;;;;;;2.30;2.10;;;;;;;36.81;38.08;100081.59;432503;1273;141642;-62
2022/08/12 06:06:41;;;;;;;5.10;2.50;;;;;;;40.25;32.60;100078.27;431158;1273;144795;-61
2022/08/12 06:16:47;;;;;;;4.80;2.30;;;;;;;42.33;29.16;100080.82;431052;1270;141584;-62
2022/08/12 06:26:53;;;;;;;4.10;2.60;;;;;;;43.67;26.32;100081.45;432604;1272;141498;-62
2022/08/12 06:36:59;;;;;;;3.00;2.10;;;;;;;44.65;24.24;100081.36;430187;1271;1395462;-62
2022/08/12 06:47:06;;;;;;;8.50;2.30;;;;;;;46.12;22.74;100077.17;430403;1272;142640;-63
2022/08/12 06:57:11;;;;;;;2.80;2.60;;;;;;;49.01;21.20;100070.52;430657;1273;146510;-63
2022/08/12 07:07:40;;;;;;;3.00;2.70;;;;;;;51.20;19.08;100064.90;431725;1272;143000;-60
2022/08/12 07:17:45;;;;;;;3.00;2.80;;;;;;;51.47;17.81;100066.26;430362;1272;145720;-64
2022/08/12 07:27:54;;;;;;;;;;;;;;;49.89;17.35;100060.84;430828;1272;142382;-64
2022/08/12 07:38:01;;;;;;;4.20;3.90;;;;;;;50.35;17.13;100055.95;430503;1271;127645;-63
2022/08/12 07:48:08;;;;;;;3.90;3.60;;;;;;;51.13;16.44;100049.21;431415;1272;147443;-62
2022/08/12 07:58:14;;;;;;;4.80;4.50;;;;;;;51.12;15.76;100058.27;430600;1272;147829;-62
2022/08/12 08:08:22;;;;;;;4.30;4.10;;;;;;;49.52;16.16;100058.32;429451;1272;146108;-62
2022/08/12 08:18:29;;;;;;;2.90;2.00;;;;;;;49.33;15.92;100054.27;430803;1273;141977;-61
2022/08/12 08:28:35;;;;;;;1.90;1.60;;;;;;;44.67;17.97;100053.53;430254;1273;146132;-62
2022/08/12 08:38:44;;;;;;;1.80;1.60;;;;;;;36.39;23.61;100060.34;429565;1272;141690;-61
2022/08/12 08:49:04;;;;;;;2.60;2.20;;;;;;;32.45;28.40;100073.26;430087;1273;141987;-60
2022/08/12 08:59:11;;;;;;;2.00;1.90;;;;;;;29.98;31.76;100075.89;435585;1272;142096;-63
2022/08/12 09:09:17;;;;;;;2.70;2.30;;;;;;;29.35;33.73;100075.89;431234;1272;140447;-61
2022/08/12 09:19:25;;;;;;;2.60;2.40;;;;;;;29.43;34.57;100073.30;433462;1271;141181;-61
2022/08/12 09:29:33;;;;;;;2.60;2.20;;;;;;;29.03;35.51;100075.77;431271;1272;144806;-63
2022/08/12 09:39:59;;;;;;;4.10;2.60;;;;;;;28.36;36.55;100076.20;430989;1273;142028;-62
2022/08/12 09:50:25;;;;;;;5.70;3.00;;;;;;;27.78;37.77;100076.88;429905;1272;141210;-64
2022/08/12 10:00:33;;;;;;;2.80;2.50;;;;;;;27.86;38.67;100065.13;430139;1273;141658;-63
2022/08/12 10:21:29;;;;;;;4.00;2.80;;;;;;;27.92;39.08;100063.70;431198;1273;146198;-63
2022/08/12 10:31:44;;;;;;;7.70;4.00;;;;;;;27.64;39.48;100054.36;430160;1273;146045;-62
2022/08/12 10:52:37;;;;;;;3.00;2.50;;;;;;;27.51;40.63;100041.23;431545;1273;142909;-62
2022/08/12 11:02:53;;;;;;;6.40;3.10;;;;;;;27.40;40.60;100039.02;431316;1272;140786;-64
2022/08/12 11:13:19;;;;;;;3.30;3.00;;;;;;;27.73;40.29;100031.08;430588;1273;141581;-63
2022/08/12 11:23:44;;;;;;;5.50;2.90;;;;;;;27.81;40.32;100036.59;430019;1273;142384;-62
2022/08/12 11:33:58;;;;;;;2.60;2.40;;;;;;;27.61;40.70;100032.03;430132;1272;143071;-63
2022/08/12 11:44:24;;;;;;;4.80;2.60;;;;;;;27.44;41.16;100028.48;429973;1273;143288;-62
2022/08/12 11:54:48;;;;;;;3.40;2.80;;;;;;;27.71;40.70;100025.02;429964;1273;141661;-61
2022/08/12 12:04:55;;;;;;;6.50;2.50;;;;;;;27.56;40.78;100019.98;430735;1273;140962;-62
2022/08/12 12:15:02;;;;;;;2.90;2.70;;;;;;;27.54;41.15;100017.73;430379;1272;143443;-62
2022/08/12 12:25:12;;;;;;;4.10;2.90;;;;;;;27.21;41.47;100013.86;430114;1272;144373;-64
2022/08/12 12:35:19;;;;;;;3.40;2.90;;;;;;;27.04;41.74;100006.84;430481;1273;142202;-62
2022/08/12 12:45:46;;;;;;;3.70;3.00;;;;;;;26.79;42.24;99986.77;430525;1273;141057;-62
2022/08/12 12:55:54;;;;;;;3.80;2.80;;;;;;;26.93;42.13;99981.92;431420;1273;147017;-62
2022/08/12 13:06:00;;;;;;;2.70;2.50;;;;;;;26.77;42.33;99983.73;432134;1273;143316;-63
2022/08/12 13:16:07;;;;;;;3.70;2.50;;;;;;;26.54;42.49;99980.90;432537;1273;146042;-61
2022/08/12 13:26:23;;;;;;;2.50;2.40;;;;;;;26.43;42.39;99977.58;440465;1272;143368;-61
2022/08/12 13:36:29;;;;;;;3.30;3.00;;;;;;;26.54;42.45;99974.48;430115;1273;144178;-63
2022/08/12 13:46:37;;;;;;;3.10;2.70;;;;;;;26.57;42.37;99973.55;434197;1272;141992;-62
2022/08/12 13:56:41;;;;;;;;;;;;;;;26.36;42.93;99977.35;439868;1272;144995;-60
2022/08/12 14:06:57;;;;;;;3.50;3.20;;;;;;;26.29;43.35;99966.10;444142;1272;127465;-62
2022/08/12 14:17:08;;;;;;;3.40;3.20;;;;;;;26.20;43.87;99958.41;434040;1272;143445;-60
2022/08/12 14:27:14;;;;;;;3.60;3.30;;;;;;;26.10;44.43;99952.27;447141;1272;143167;-62
2022/08/12 14:37:42;;;;;;;4.00;3.70;;;;;;;25.90;45.91;99946.96;447147;1272;141881;-61
2022/08/12 14:48:03;;;;;;;4.30;4.00;;;;;;;25.72;46.71;99942.20;446973;1272;141477;-62
2022/08/12 14:58:10;;;;;;;4.20;3.90;;;;;;;25.31;47.82;99933.35;447176;1271;196114;-62
2022/08/12 15:08:23;;;;;;;8.20;4.30;;;;;;;25.26;48.08;99927.23;446226;1272;141923;-62
2022/08/12 15:18:33;;;;;;;5.60;4.40;;;;;;;25.05;48.52;99933.73;447166;1271;196161;-62
2022/08/12 15:28:41;;;;;;;5.20;4.70;;;;;;;24.85;48.99;99932.84;447200;1272;143988;-62
2022/08/12 15:38:58;;;;;;;5.90;5.00;;;;;;;24.60;49.61;99928.44;447221;1272;144075;-62
2022/08/12 15:49:06;;;;;;;6.10;4.90;;;;;;;24.36;50.19;99936.77;447271;1272;196484;-62
2022/08/12 15:59:21;;;;;;;5.40;4.90;;;;;;;24.25;50.63;99936.27;446494;1271;143884;-62
2022/08/12 16:09:48;;;;;;;6.00;5.50;;;;;;;24.08;51.03;99932.85;447153;1271;142332;-62
2022/08/12 16:20:19;;;;;;;6.40;5.50;;;;;;;23.97;51.28;99932.90;446565;1271;183903;-62
2022/08/12 16:30:29;;;;;;;5.30;4.80;;;;;;;23.85;51.89;99937.06;447283;1272;141644;-62
2022/08/12 16:40:39;;;;;;;5.30;4.80;;;;;;;23.61;52.50;99939.45;447338;1272;142198;-62
2022/08/12 16:50:50;;;;;;;5.60;5.10;;;;;;;23.46;52.96;99935.92;447510;1271;141852;-62
2022/08/12 17:00:59;;;;;;;6.10;5.50;;;;;;;23.28;53.97;99923.14;434667;1272;144753;-62
2022/08/12 17:11:07;;;;;;;6.40;5.90;;;;;;;23.12;54.38;99913.60;446560;1271;141979;-63
2022/08/12 17:21:23;;;;;;;10.30;6.80;;;;;;;22.95;55.23;99900.35;447300;1270;141389;-62
2022/08/12 17:31:50;;;;;;;5.70;5.30;;;;;;;22.80;56.16;99896.28;446548;1272;142176;-62
2022/08/12 17:42:11;;;;;;;6.70;6.10;;;;;;;22.69;56.73;99892.63;447300;1271;193924;-62
2022/08/12 17:52:39;;;;;;;7.40;6.50;;;;;;;22.57;57.63;99877.77;447338;1272;144679;-62
2022/08/12 18:02:45;;;;;;;;;;;;;;;22.33;59.26;99871.58;446869;1274;142556;-62
2022/08/12 18:12:51;;;;;;;7.20;6.50;;;;;;;22.13;59.93;99867.85;447471;1272;131106;-62
2022/08/12 18:22:59;;;;;;;7.10;6.50;;;;;;;21.96;60.98;99875.96;446542;1272;141495;-62
2022/08/12 18:33:07;;;;;;;7.20;6.60;;;;;;;21.69;61.54;99872.54;446328;1272;1202506;-62
2022/08/12 18:43:18;;;;;;;7.10;6.50;;;;;;;21.50;61.95;99876.45;447248;1272;142514;-61
2022/08/12 18:53:27;;;;;;;9.10;7.10;;;;;;;21.39;62.48;99871.92;446503;1272;141923;-63
2022/08/12 19:04:05;;;;;;;7.60;6.90;;;;;;;21.30;62.87;99876.44;447341;1272;142869;-63
2022/08/12 19:14:25;;;;;;;;;;;;;;;21.23;63.35;99878.24;446408;1271;141974;-61
2022/08/12 19:34:57;;;;;;;8.70;7.10;;;;;;;21.05;64.37;99881.14;446527;1270;142960;-63
2022/08/12 19:45:23;;;;;;;7.10;6.40;;;;;;;20.99;64.42;99885.70;447050;1272;142754;-61
2022/08/12 19:55:49;;;;;;;10.90;8.10;;;;;;;20.92;64.42;99864.84;446727;1272;145182;-62
2022/08/12 20:05:57;;;;;;;9.40;8.40;;;;;;;20.86;64.54;99874.67;447345;1272;141400;-62
2022/08/12 20:16:12;;;;;;;9.60;8.80;;;;;;;20.76;65.69;99884.09;447368;1271;142529;-61
2022/08/12 20:26:40;;;;;;;10.60;9.60;;;;;;;20.68;66.28;99881.20;446626;1271;143488;-61
2022/08/12 20:36:44;;;;;;;;;;;;;;;20.58;66.91;99876.80;447065;1270;146450;-62
2022/08/12 20:47:05;;;;;;;10.20;9.20;;;;;;;20.47;67.93;99880.40;446831;1272;189481;-63
2022/08/12 20:57:24;;;;;;;10.00;9.10;;;;;;;20.37;68.61;99873.09;447276;1272;142219;-62
2022/08/12 21:07:44;;;;;;;15.00;11.60;;;;;;;20.34;69.19;99851.02;446762;1272;142377;-63
2022/08/12 21:18:01;;;;;;;12.20;11.10;;;;;;;20.32;70.08;99851.77;447281;1270;142761;-63
2022/08/12 21:28:26;;;;;;;10.80;9.90;;;;;;;20.25;71.08;99844.55;447283;1271;142857;-62
2022/08/12 21:38:39;;;;;;;13.10;11.90;;;;;;;20.11;71.56;99852.73;446567;1272;142569;-62
2022/08/12 21:48:44;;;;;;;14.00;12.70;;;;;;;20.01;72.26;99877.65;447290;1271;154242;-62
2022/08/12 21:58:51;;;;;;;;;;;;;;;19.89;73.09;99880.84;446538;1272;145297;-62
2022/08/12 22:09:00;;;;;;;11.10;9.60;;;;;;;19.74;73.89;99861.71;447230;1273;128153;-63
2022/08/12 22:19:06;;;;;;;9.10;8.20;;;;;;;19.52;74.01;99851.92;447268;1271;142360;-64
2022/08/12 22:39:35;;;;;;;11.30;10.20;;;;;;;19.16;75.10;99857.35;447299;1272;145865;-62
2022/08/12 22:49:48;;;;;;;11.70;10.20;;;;;;;19.08;75.66;99857.85;446540;1272;143862;-62
2022/08/12 23:00:09;;;;;;;12.20;11.00;;;;;;;19.06;76.52;99846.23;447228;1272;142580;-62
2022/08/12 23:10:32;;;;;;;13.50;12.20;;;;;;;19.05;76.86;99835.50;446968;1272;143452;-63
2022/08/12 23:20:38;;;;;;;10.70;9.80;;;;;;;18.94;77.32;99832.58;446464;1272;143696;-61
2022/08/12 23:30:45;;;;;;;11.80;10.60;;;;;;;18.77;78.01;99841.94;447262;1272;143136;-62
2022/08/12 23:40:53;;;;;;;15.60;11.60;;;;;;;18.67;78.66;99830.52;446442;1271;141668;-61
2022/08/12 23:51:02;;;;;;;12.40;11.10;;;;;;;18.59;79.04;99812.63;447269;1272;142077;-61
